EDT,Max TemperatureF,Mean TemperatureF,Min TemperatureF,Max Dew PointF,MeanDew PointF,Min DewpointF,Max Humidity, Mean Humidity, Min Humidity, Max Sea Level PressureIn, Mean Sea Level PressureIn, Min Sea Level PressureIn, Max VisibilityMiles, Mean VisibilityMiles, Min VisibilityMiles, Max Wind SpeedMPH, Mean Wind SpeedMPH, Max Gust SpeedMPH,PrecipitationIn, CloudCover, Events, WindDirDegrees
2012-9-1,90,81,71,70,67,63,93,69,44,30.17,30.12,30.05,10,10,10,23,4,31,0.08,4,Rain-Thunderstorm,267
2012-9-2,87,79,70,73,70,68,93,74,55,30.10,30.03,29.95,10,10,5,13,3,16,0.06,4,Rain-Thunderstorm,90
2012-9-3,77,74,70,72,69,68,97,88,79,30.10,30.04,29.99,10,9,2,12,5,17,0.13,7,Rain,122
2012-9-4,83,77,71,72,70,69,93,79,65,30.05,29.98,29.91,10,9,3,17,9,23,0.02,7,,146
2012-9-5,84,78,71,73,70,68,93,81,69,29.96,29.90,29.83,10,9,2,20,4,23,0.93,7,Rain-Thunderstorm,135
2012-9-6,86,78,70,71,68,63,100,76,51,29.99,29.93,29.86,10,9,2,15,4,18,0.00,4,,55
2012-9-7,88,77,65,68,66,63,93,68,43,30.01,29.95,29.86,10,10,10,13,4,16,0.00,1,,128
2012-9-8,84,71,58,68,62,51,93,70,47,29.93,29.79,29.71,10,10,7,33,7,46,0.02,3,Rain,277
2012-9-9,76,65,53,54,50,48,83,61,38,30.04,29.96,29.91,10,10,10,16,5,18,0.00,2,,317
2012-9-10,78,66,53,53,47,40,86,59,32,30.22,30.12,30.04,10,10,10,16,5,22,0.00,1,,332
2012-9-11,77,63,48,55,48,45,86,62,38,30.36,30.30,30.24,10,10,10,12,3,16,0.00,0,,151
2012-9-12,81,67,53,55,53,51,93,65,34,30.39,30.34,30.30,10,10,10,12,3,15,0.00,0,,106
2012-9-13,80,66,52,54,51,44,93,61,26,30.40,30.34,30.28,10,10,10,13,2,17,0.00,0,,128
2012-9-14,81,67,53,58,53,50,90,64,34,30.32,30.25,30.17,10,10,10,10,2,16,0.00,0,,132
2012-9-15,80,70,59,60,58,54,87,68,46,30.24,30.18,30.13,10,10,10,12,4,15,0.00,3,,102
2012-9-16,66,64,61,58,55,51,86,74,56,30.21,30.16,30.11,10,10,10,8,5,,0.02,7,Rain,117
2012-9-17,66,64,61,64,61,58,100,91,81,30.14,30.07,29.93,10,7,2,7,4,122,0.60,8,Rain,119
2012-9-18,74,68,62,68,64,53,100,84,67,29.90,29.76,29.67,10,7,1,22,7,39,1.73,8,Rain,198
2012-9-19,73,63,53,54,49,45,83,62,40,30.17,30.07,29.92,10,10,10,13,6,15,0.00,2,,8
2012-9-20,76,67,58,57,54,49,84,69,53,30.21,30.14,30.05,10,10,10,15,5,18,0.00,5,,141
2012-9-21,81,68,55,58,56,53,93,66,39,30.10,30.04,29.97,10,10,8,15,3,18,0.00,1,,194
2012-9-22,83,72,60,59,54,39,84,60,36,30.02,29.93,29.86,10,10,10,25,9,36,0.00,1,,263
2012-9-23,70,59,48,41,35,28,56,39,22,30.21,30.12,30.01,10,10,10,18,7,24,0.00,0,,312
2012-9-24,71,56,41,43,39,36,89,59,28,30.30,30.23,30.16,10,10,10,13,2,17,0.00,0,,299
2012-9-25,73,59,45,55,47,40,89,65,41,30.26,30.21,30.15,10,10,10,12,3,15,0.01,1,Rain,274
2012-9-26,84,69,54,63,57,52,93,67,40,30.21,30.17,30.13,10,10,10,13,4,17,0.00,0,,240
2012-9-27,85,73,61,61,58,52,90,62,34,30.20,30.15,30.09,10,10,7,12,2,16,0.00,2,,286
2012-9-28,75,70,65,63,60,57,81,68,54,30.11,30.06,30.01,10,10,10,15,5,21,T,5,Rain-Thunderstorm,280
2012-9-29,70,63,55,60,57,47,93,78,62,30.04,29.98,29.91,10,10,10,14,5,,0.00,7,,134
2012-9-30,74,60,46,52,47,43,93,64,35,29.97,29.92,29.85,10,10,10,10,2,14,0.00,1,,280